Terminal Aerodrome Forecast
Issued by NWS Cleveland, OH

Home | Current Version | Previous Version | Text Only | Print | Product List | Glossary On
Versions: 1 2 3 4 5 6 7 8 9 10 11 12 13 14 15 16
000
FTUS41 KCLE 271400 AAA
TAFCAK
TAF AMD
KCAK 271403Z 2714/2812 19010KT P6SM -SHRA OVC035
      TEMPO 2714/2717 5SM BR BKN025
     FM271800 20010KT P6SM SCT035 BKN060
     FM280100 22010KT 4SM -RA BR SCT015 OVC025
      TEMPO 2802/2804 OVC015
     FM280400 23010KT 4SM -RA BR BKN007 OVC015
     FM280900 31008KT 4SM -RA BR OVC007=

USA.gov is the U.S. government's official web portal to all federal, state and local government web resources and services.